createdAt,value
2023-03-26T00:01:21.658Z,97138.91
2023-03-26T00:03:53.508Z,97146.38
2023-03-26T00:06:24.890Z,97136.09
2023-03-26T00:08:52.673Z,97141.53
2023-03-26T00:11:21.996Z,97133.53
2023-03-26T00:13:49.139Z,97124.22
2023-03-26T00:16:18.787Z,97136.22
2023-03-26T00:18:46.289Z,97131.34
2023-03-26T00:21:16.131Z,97136.22
2023-03-26T00:23:44.022Z,97132.53
2023-03-26T00:26:11.145Z,97133.31
2023-03-26T00:28:40.449Z,97130.59
2023-03-26T00:31:10.559Z,97136.34
2023-03-26T00:33:38.347Z,97125.03
2023-03-26T00:36:10.040Z,97127.44
2023-03-26T00:38:39.082Z,97128.31
2023-03-26T00:41:18.037Z,97127.25
2023-03-26T00:43:48.726Z,97114.16
2023-03-26T00:46:15.895Z,97112.56
2023-03-26T00:48:45.861Z,97102.56
2023-03-26T00:51:17.804Z,97104.00
2023-03-26T00:53:47.002Z,97101.25
2023-03-26T00:56:14.042Z,97105.09
2023-03-26T00:58:40.817Z,97092.22
2023-03-26T01:01:13.587Z,97100.50
2023-03-26T01:03:45.706Z,97081.94
2023-03-26T01:06:35.724Z,97086.34
2023-03-26T01:09:12.713Z,97080.66
2023-03-26T01:11:39.750Z,97077.22
2023-03-26T01:14:11.097Z,97075.59
2023-03-26T01:16:52.809Z,97067.59
2023-03-26T01:20:12.546Z,97066.94
2023-03-26T01:22:45.811Z,97064.16
2023-03-26T01:25:12.466Z,97062.53
2023-03-26T01:27:50.267Z,97074.72
2023-03-26T01:30:27.515Z,97068.00
2023-03-26T01:33:20.528Z,97065.25
2023-03-26T01:35:58.879Z,97060.72
2023-03-26T01:38:49.993Z,97050.34
2023-03-26T01:41:24.694Z,97054.19
2023-03-26T01:44:04.598Z,97068.00
2023-03-26T01:46:36.376Z,97060.94
2023-03-26T01:49:05.027Z,97067.59
2023-03-26T01:51:34.600Z,97059.09
2023-03-26T01:54:04.169Z,97059.25
2023-03-26T01:57:18.514Z,97063.25
2023-03-26T02:00:24.910Z,97072.22
2023-03-26T02:03:41.085Z,97070.03
2023-03-26T02:06:18.938Z,97066.56
2023-03-26T02:08:59.362Z,97065.09
2023-03-26T02:11:33.671Z,97061.16
2023-03-26T02:14:03.246Z,97057.31
2023-03-26T02:16:29.888Z,97052.75
2023-03-26T02:18:59.211Z,97051.25
2023-03-26T02:21:28.187Z,97051.25
2023-03-26T02:24:03.514Z,97055.00
2023-03-26T02:26:32.014Z,97061.16
2023-03-26T02:28:59.381Z,97060.03
2023-03-26T02:31:30.222Z,97065.66
2023-03-26T02:33:57.371Z,97061.69
2023-03-26T02:36:29.951Z,97060.03
2023-03-26T02:38:58.064Z,97063.78
2023-03-26T02:41:24.959Z,97061.94
2023-03-26T02:43:51.615Z,97062.81
2023-03-26T02:46:18.301Z,97066.41
2023-03-26T02:48:45.022Z,97058.47
2023-03-26T02:51:11.635Z,97056.50
2023-03-26T02:53:39.530Z,97060.31
2023-03-26T02:56:06.934Z,97044.53
2023-03-26T02:58:33.602Z,97046.31
2023-03-26T03:01:03.216Z,97043.34
2023-03-26T03:03:30.247Z,97042.69
2023-03-26T03:05:57.826Z,97049.69
2023-03-26T03:08:28.112Z,97044.06
2023-03-26T03:11:09.746Z,97044.13
2023-03-26T03:13:36.505Z,97035.97
2023-03-26T03:16:03.543Z,97033.91
2023-03-26T03:18:30.200Z,97030.84
2023-03-26T03:20:57.031Z,97032.44
2023-03-26T03:23:25.875Z,97039.75
2023-03-26T03:25:53.142Z,97036.44
2023-03-26T03:28:20.177Z,97037.25
2023-03-26T03:30:47.147Z,97041.66
2023-03-26T03:33:16.239Z,97044.31
2023-03-26T03:35:42.891Z,97040.16
2023-03-26T03:38:10.738Z,97037.81
2023-03-26T03:40:37.371Z,97041.72
2023-03-26T03:43:03.981Z,97041.25
2023-03-26T03:45:30.598Z,97045.91
2023-03-26T03:47:57.259Z,97048.75
2023-03-26T03:50:24.146Z,97044.06
2023-03-26T03:52:50.788Z,97051.19
2023-03-26T03:55:17.418Z,97056.00
2023-03-26T03:57:44.708Z,97040.94
2023-03-26T04:00:13.022Z,97045.56
2023-03-26T04:02:43.187Z,97043.75
2023-03-26T04:05:11.636Z,97043.75
2023-03-26T04:07:38.789Z,97051.72
2023-03-26T04:10:07.168Z,97045.94
2023-03-26T04:12:33.810Z,97036.81
2023-03-26T04:15:00.447Z,97043.00
2023-03-26T04:17:27.260Z,97036.69
2023-03-26T04:19:54.896Z,97037.00
2023-03-26T04:22:22.160Z,97027.41
2023-03-26T04:24:49.783Z,97028.13
2023-03-26T04:27:20.233Z,97019.06
2023-03-26T04:29:49.767Z,97022.03
2023-03-26T04:32:26.631Z,97017.28
2023-03-26T04:34:53.677Z,97023.59
2023-03-26T04:37:34.578Z,97025.41
2023-03-26T04:40:10.855Z,97008.16
2023-03-26T04:42:41.616Z,97015.38
2023-03-26T04:45:09.269Z,97011.22
2023-03-26T04:47:37.172Z,97005.63
2023-03-26T04:50:09.340Z,97007.22
2023-03-26T04:52:36.653Z,97010.03
2023-03-26T04:55:04.475Z,97005.88
2023-03-26T04:57:46.187Z,97003.38
2023-03-26T05:00:16.620Z,96999.09
2023-03-26T05:02:43.720Z,96995.56
2023-03-26T05:05:12.073Z,96993.41
2023-03-26T05:07:38.709Z,96990.13
2023-03-26T05:10:06.230Z,96985.09
2023-03-26T05:12:32.933Z,96978.75
2023-03-26T05:14:59.567Z,96983.84
2023-03-26T05:17:26.723Z,96982.56
2023-03-26T05:19:53.325Z,96983.69
2023-03-26T05:22:19.892Z,96982.97
2023-03-26T05:24:46.479Z,96982.06
2023-03-26T05:27:15.170Z,96971.03
2023-03-26T05:29:41.888Z,96972.84
2023-03-26T05:32:09.731Z,96974.78
2023-03-26T05:34:36.430Z,96972.06
2023-03-26T05:37:04.495Z,96981.13
2023-03-26T05:39:31.106Z,96984.78
2023-03-26T05:41:57.806Z,96987.19
2023-03-26T05:44:24.487Z,96985.56
2023-03-26T05:46:51.259Z,96990.28
2023-03-26T05:49:17.908Z,96992.41
2023-03-26T05:51:44.493Z,96987.13
2023-03-26T05:54:11.197Z,96978.81
2023-03-26T05:56:38.155Z,96986.56
2023-03-26T05:59:04.762Z,96987.94
2023-03-26T06:01:31.409Z,96985.50
2023-03-26T06:03:58.186Z,96984.09
2023-03-26T06:06:24.906Z,96988.91
2023-03-26T06:09:01.474Z,96991.81
2023-03-26T06:11:30.800Z,96982.38
2023-03-26T06:13:57.530Z,96980.47
2023-03-26T06:16:26.523Z,96973.59
2023-03-26T06:18:56.736Z,96971.50
2023-03-26T06:21:25.584Z,96978.97
2023-03-26T06:23:52.455Z,96978.25
2023-03-26T06:26:19.178Z,96984.09
2023-03-26T06:28:45.784Z,96975.91
2023-03-26T06:31:12.636Z,96981.19
2023-03-26T06:33:39.359Z,96978.38
2023-03-26T06:36:06.297Z,96980.03
2023-03-26T06:38:32.964Z,96977.38
2023-03-26T06:41:06.319Z,96970.81
2023-03-26T06:43:33.837Z,96975.59
2023-03-26T06:46:01.678Z,96971.38
2023-03-26T06:48:28.462Z,96966.13
2023-03-26T06:50:55.425Z,96964.00
2023-03-26T06:53:22.294Z,96961.25
2023-03-26T06:55:49.124Z,96972.56
2023-03-26T06:58:16.804Z,96966.22
2023-03-26T07:00:43.558Z,96957.75
2023-03-26T07:03:11.485Z,96958.56
2023-03-26T07:05:38.843Z,96950.69
2023-03-26T07:08:05.806Z,96946.41
2023-03-26T07:10:32.808Z,96950.63
2023-03-26T07:13:01.481Z,96945.53
2023-03-26T07:15:30.902Z,96949.28
2023-03-26T07:17:57.673Z,96947.31
2023-03-26T07:20:24.436Z,96942.38
2023-03-26T07:22:51.774Z,96937.09
2023-03-26T07:25:19.239Z,96936.25
2023-03-26T07:28:26.792Z,96921.59
2023-03-26T07:31:00.933Z,96917.59
2023-03-26T07:33:56.425Z,96922.22
2023-03-26T07:36:47.185Z,96911.47
2023-03-26T07:39:42.804Z,96910.59
2023-03-26T07:42:24.649Z,96900.25
2023-03-26T07:45:26.303Z,96896.97
2023-03-26T07:47:53.849Z,96880.97
2023-03-26T07:50:22.977Z,96882.00
2023-03-26T07:52:50.272Z,96867.31
2023-03-26T07:55:17.912Z,96866.31
2023-03-26T07:58:30.675Z,96860.81
2023-03-26T08:01:07.347Z,96866.00
2023-03-26T08:04:27.869Z,96868.53
2023-03-26T08:07:03.927Z,96864.22
2023-03-26T08:09:42.498Z,96855.06
2023-03-26T08:12:55.095Z,96848.19
2023-03-26T08:16:01.157Z,96844.38
2023-03-26T08:18:51.936Z,96831.59
2023-03-26T08:21:28.260Z,96820.13
2023-03-26T08:24:43.680Z,96810.00
2023-03-26T08:27:25.843Z,96810.03
2023-03-26T08:30:02.296Z,96805.94
2023-03-26T08:32:29.250Z,96798.22
2023-03-26T08:34:57.592Z,96802.88
2023-03-26T08:37:24.529Z,96799.69
2023-03-26T08:39:51.193Z,96792.75
2023-03-26T08:43:13.273Z,96781.03
2023-03-26T08:46:42.413Z,96778.53
2023-03-26T08:49:38.668Z,96760.38
2023-03-26T08:52:21.513Z,96753.66
2023-03-26T08:55:36.558Z,96754.13
2023-03-26T08:58:51.865Z,96741.25
2023-03-26T09:01:36.007Z,96733.53
2023-03-26T09:04:26.125Z,96728.53
2023-03-26T09:30:10.048Z,96679.56
2023-03-26T09:33:23.090Z,96667.88
2023-03-26T09:36:20.231Z,96658.66
2023-03-26T09:39:15.691Z,96649.41
2023-03-26T09:42:03.996Z,96639.41
2023-03-26T09:44:42.620Z,96624.13
2023-03-26T09:47:41.436Z,96624.84
2023-03-26T09:50:45.161Z,96606.09
2023-03-26T09:53:34.621Z,96604.16
2023-03-26T09:56:41.575Z,96602.00
2023-03-26T09:59:11.543Z,96600.75
2023-03-26T10:05:52.604Z,96594.38
2023-03-26T10:08:49.768Z,96578.28
2023-03-26T10:12:01.981Z,96578.19
2023-03-26T10:15:22.825Z,96580.84
2023-03-26T10:18:48.796Z,96565.66
2023-03-26T10:21:37.605Z,96568.06
2023-03-26T10:24:29.573Z,96555.25
2023-03-26T10:27:54.584Z,96553.47
2023-03-26T10:31:06.220Z,96544.16
2023-03-26T10:34:32.244Z,96526.97
2023-03-26T10:38:00.183Z,96508.84
2023-03-26T10:41:00.892Z,96508.97
2023-03-26T11:12:28.334Z,96445.19
2023-03-26T11:15:22.252Z,96440.09
2023-03-26T11:18:05.018Z,96442.03
2023-03-26T11:20:41.670Z,96442.78
2023-03-26T11:23:40.609Z,96436.97
2023-03-26T11:26:44.741Z,96434.22
2023-03-26T11:29:31.040Z,96428.47
2023-03-26T11:32:12.669Z,96423.97
2023-03-26T11:34:49.483Z,96427.53
2023-03-26T11:37:29.535Z,96426.00
2023-03-26T11:39:58.773Z,96443.84
2023-03-26T11:42:26.103Z,96448.16
2023-03-26T11:45:05.704Z,96443.50
2023-03-26T11:47:38.643Z,96445.44
2023-03-26T11:50:08.312Z,96444.84
2023-03-26T11:52:36.033Z,96449.72
2023-03-26T11:55:04.268Z,96457.75
2023-03-26T11:57:35.295Z,96471.81
2023-03-26T12:00:16.614Z,96471.31
2023-03-26T12:02:45.290Z,96479.25
2023-03-26T12:05:24.913Z,96491.88
2023-03-26T12:07:57.349Z,96501.88
2023-03-26T12:10:28.808Z,96504.38
2023-03-26T12:12:59.036Z,96514.19
2023-03-26T12:15:26.262Z,96506.25
2023-03-26T12:17:56.456Z,96497.34
2023-03-26T12:20:25.855Z,96477.50
2023-03-26T12:22:59.806Z,96483.31
2023-03-26T12:25:28.792Z,96481.38
2023-03-26T12:28:19.071Z,96477.59
2023-03-26T12:30:58.731Z,96459.50
2023-03-26T12:33:35.514Z,96449.56
2023-03-26T12:36:23.344Z,96464.75
2023-03-26T12:39:16.919Z,96460.75
2023-03-26T12:44:42.291Z,96464.00
2023-03-26T12:44:59.944Z,96465.53
2023-03-26T12:48:00.342Z,96463.63
2023-03-26T12:50:34.668Z,96455.16
2023-03-26T12:53:53.290Z,96447.88
2023-03-26T12:56:36.445Z,96459.72
2023-03-26T12:59:39.696Z,96471.28
2023-03-26T13:02:59.129Z,96452.59
2023-03-26T13:06:13.925Z,96448.91
2023-03-26T13:09:38.883Z,96447.94
2023-03-26T13:12:21.464Z,96455.88
2023-03-26T13:15:13.030Z,96451.69
2023-03-26T13:18:18.159Z,96442.03
2023-03-26T13:20:55.821Z,96446.53
2023-03-26T13:23:54.819Z,96448.09
2023-03-26T13:26:55.871Z,96447.59
2023-03-26T13:29:29.277Z,96441.88
2023-03-26T13:32:18.672Z,96443.69
2023-03-26T13:35:27.960Z,96445.19
2023-03-26T13:37:59.768Z,96447.41
2023-03-26T13:40:41.300Z,96453.59
2023-03-26T13:43:30.920Z,96456.03
2023-03-26T13:46:40.142Z,96456.50
2023-03-26T13:49:15.390Z,96447.34
2023-03-26T13:52:19.591Z,96414.38
2023-03-26T13:54:53.522Z,96413.91
2023-03-26T13:57:42.907Z,96408.66
2023-03-26T14:00:21.772Z,96400.47
2023-03-26T14:03:20.807Z,96377.31
2023-03-26T14:05:51.491Z,96383.50
2023-03-26T14:08:36.244Z,96380.84
2023-03-26T14:11:11.655Z,96372.00
2023-03-26T14:14:04.243Z,96385.00
2023-03-26T14:16:38.208Z,96385.06
2023-03-26T14:19:38.528Z,96388.19
2023-03-26T14:22:55.763Z,96385.34
2023-03-26T14:25:39.769Z,96402.03
2023-03-26T14:28:24.985Z,96403.34
2023-03-26T14:31:19.502Z,96404.19
2023-03-26T14:33:49.617Z,96402.22
2023-03-26T14:36:43.881Z,96399.72
2023-03-26T14:39:42.191Z,96403.47
2023-03-26T14:42:19.626Z,96410.38
2023-03-26T14:45:09.147Z,96399.63
2023-03-26T14:48:04.154Z,96390.84
2023-03-26T14:50:47.722Z,96385.84
2023-03-26T14:53:46.530Z,96379.53
2023-03-26T14:56:44.599Z,96377.38
2023-03-26T14:59:14.093Z,96364.19
2023-03-26T15:01:47.286Z,96372.50
2023-03-26T15:04:52.327Z,96358.94
2023-03-26T15:07:52.645Z,96348.00
2023-03-26T15:10:40.229Z,96348.47
2023-03-26T15:13:12.709Z,96341.22
2023-03-26T15:16:06.725Z,96328.50
2023-03-26T15:18:47.982Z,96326.59
2023-03-26T15:21:20.222Z,96327.41
2023-03-26T15:24:02.590Z,96328.75
2023-03-26T15:26:51.915Z,96332.53
2023-03-26T15:29:34.064Z,96325.13
2023-03-26T15:32:03.223Z,96327.31
2023-03-26T15:34:54.681Z,96327.06
2023-03-26T15:37:56.742Z,96320.78
2023-03-26T15:40:54.634Z,96321.97
2023-03-26T15:43:21.973Z,96324.47
2023-03-26T15:46:12.735Z,96334.56
2023-03-26T15:48:57.828Z,96342.31
2023-03-26T15:51:30.425Z,96352.16
2023-03-26T15:54:03.169Z,96343.03
2023-03-26T15:57:03.360Z,96341.00
2023-03-26T15:59:42.433Z,96339.56
2023-03-26T16:02:39.347Z,96340.75
2023-03-26T16:05:39.717Z,96326.25
2023-03-26T16:08:09.308Z,96326.47
2023-03-26T16:10:52.262Z,96324.69
2023-03-26T16:13:34.276Z,96319.47
2023-03-26T16:16:19.565Z,96318.97
2023-03-26T16:19:24.267Z,96318.03
2023-03-26T16:22:11.718Z,96319.22
2023-03-26T16:24:44.503Z,96319.13
2023-03-26T16:27:14.163Z,96321.25
2023-03-26T16:30:15.307Z,96321.84
2023-03-26T16:32:48.148Z,96311.63
2023-03-26T16:35:14.706Z,96322.31
2023-03-26T16:37:50.054Z,96320.31
2023-03-26T16:40:16.755Z,96319.47
2023-03-26T16:43:14.504Z,96328.38
2023-03-26T16:45:58.116Z,96327.41
2023-03-26T16:49:02.477Z,96328.13
2023-03-26T16:51:44.193Z,96323.22
2023-03-26T16:54:36.188Z,96330.38
2023-03-26T16:57:27.084Z,96331.66
2023-03-26T17:00:23.484Z,96326.41
2023-03-26T17:03:14.893Z,96329.63
2023-03-26T17:05:56.802Z,96328.09
2023-03-26T17:08:53.368Z,96324.78
2023-03-26T17:11:31.994Z,96322.16
2023-03-26T17:14:19.634Z,96332.72
2023-03-26T17:17:01.276Z,96331.41
2023-03-26T17:19:48.105Z,96328.44
2023-03-26T17:22:26.683Z,96327.47
2023-03-26T17:24:59.401Z,96322.03
2023-03-26T17:27:44.161Z,96321.78
2023-03-26T17:30:33.926Z,96308.69
2023-03-26T17:33:03.543Z,96307.06
2023-03-26T17:35:47.703Z,96298.78
2023-03-26T17:38:17.110Z,96297.31
2023-03-26T17:41:05.318Z,96305.41
2023-03-26T17:43:46.146Z,96305.63
2023-03-26T17:46:33.244Z,96306.16
2023-03-26T17:49:21.961Z,96310.44
2023-03-26T17:51:58.141Z,96316.16
2023-03-26T17:54:57.213Z,96322.34
2023-03-26T17:57:40.160Z,96318.97
2023-03-26T18:00:16.321Z,96311.47
2023-03-26T18:02:50.532Z,96307.41
2023-03-26T18:05:17.647Z,96294.13
2023-03-26T18:08:15.012Z,96278.34
2023-03-26T18:11:32.179Z,96272.19
2023-03-26T18:14:35.182Z,96274.06
2023-03-26T18:17:02.226Z,96268.22
2023-03-26T18:19:29.644Z,96255.41
2023-03-26T18:22:03.626Z,96255.53
2023-03-26T18:24:36.498Z,96257.28
2023-03-26T18:27:08.205Z,96256.13
2023-03-26T18:29:36.420Z,96264.06
2023-03-26T18:32:17.429Z,96258.75
2023-03-26T18:34:52.497Z,96268.09
2023-03-26T18:37:24.487Z,96269.38
2023-03-26T18:40:20.190Z,96276.50
2023-03-26T18:42:58.133Z,96283.13
2023-03-26T18:45:43.420Z,96285.97
2023-03-26T18:48:21.333Z,96276.81
2023-03-26T18:51:01.111Z,96277.22
2023-03-26T18:53:38.722Z,96263.31
2023-03-26T18:56:36.006Z,96259.97
2023-03-26T18:59:05.392Z,96254.03
2023-03-26T19:01:35.305Z,96252.00
2023-03-26T19:04:08.280Z,96240.50
2023-03-26T19:06:44.792Z,96236.47
2023-03-26T19:09:28.061Z,96242.13
2023-03-26T19:11:57.620Z,96238.31
2023-03-26T19:14:26.076Z,96234.06
2023-03-26T19:16:58.029Z,96240.69
2023-03-26T19:19:37.951Z,96232.66
2023-03-26T19:22:07.009Z,96228.47
2023-03-26T19:24:34.438Z,96230.88
2023-03-26T19:27:01.286Z,96216.13
2023-03-26T19:29:31.896Z,96209.47
2023-03-26T19:32:20.159Z,96207.50
2023-03-26T19:34:48.699Z,96197.59
2023-03-26T19:37:26.838Z,96204.06
2023-03-26T19:39:55.462Z,96198.63
2023-03-26T19:42:27.588Z,96191.59
2023-03-26T19:45:22.845Z,96188.66
2023-03-26T19:48:03.626Z,96190.22
2023-03-26T19:50:36.786Z,96187.97
2023-03-26T19:53:25.422Z,96186.69
2023-03-26T19:55:57.341Z,96188.34
2023-03-26T19:58:27.607Z,96180.88
2023-03-26T20:00:56.214Z,96184.06
2023-03-26T20:03:47.442Z,96174.94
2023-03-26T20:06:17.281Z,96180.81
2023-03-26T20:08:44.474Z,96175.41
2023-03-26T20:11:19.420Z,96182.16
2023-03-26T20:13:46.772Z,96175.19
2023-03-26T20:16:23.418Z,96180.19
2023-03-26T20:18:50.756Z,96175.13
2023-03-26T20:21:18.043Z,96173.25
2023-03-26T20:23:44.828Z,96185.91
2023-03-26T20:26:13.829Z,96194.47
2023-03-26T20:28:47.488Z,96184.28
2023-03-26T20:31:19.429Z,96186.16
2023-03-26T20:33:47.907Z,96191.75
2023-03-26T20:36:15.090Z,96195.34
2023-03-26T20:39:01.200Z,96199.16
2023-03-26T20:41:27.833Z,96191.09
2023-03-26T20:43:54.418Z,96192.38
2023-03-26T20:46:24.010Z,96194.25
2023-03-26T20:48:58.051Z,96190.13
2023-03-26T20:51:24.696Z,96198.31
2023-03-26T20:53:51.327Z,96196.13
2023-03-26T20:56:19.597Z,96200.81
2023-03-26T20:58:54.762Z,96190.41
2023-03-26T21:01:27.780Z,96181.94
2023-03-26T21:03:54.767Z,96183.41
2023-03-26T21:06:21.344Z,96182.53
2023-03-26T21:08:48.246Z,96189.16
2023-03-26T21:11:43.656Z,96186.16
2023-03-26T21:14:19.604Z,96185.78
2023-03-26T21:16:46.737Z,96184.69
2023-03-26T21:19:13.850Z,96196.66
2023-03-26T21:22:19.865Z,96184.97
2023-03-26T21:25:17.110Z,96174.56
2023-03-26T21:27:57.238Z,96187.00
2023-03-26T21:30:24.346Z,96191.44
2023-03-26T21:32:52.244Z,96181.69
2023-03-26T21:35:19.664Z,96190.16
2023-03-26T21:37:49.737Z,96195.97
2023-03-26T21:40:18.221Z,96200.84
2023-03-26T21:42:47.387Z,96196.56
2023-03-26T21:45:14.936Z,96204.56
2023-03-26T21:47:42.282Z,96209.47
2023-03-26T21:50:11.527Z,96191.69
2023-03-26T21:52:46.801Z,96194.16
2023-03-26T21:55:21.021Z,96196.88
2023-03-26T21:58:29.246Z,96206.03
2023-03-26T22:01:20.095Z,96208.22
2023-03-26T22:04:04.699Z,96213.06
2023-03-26T22:06:47.977Z,96208.34
2023-03-26T22:09:18.434Z,96201.03
2023-03-26T22:11:47.406Z,96205.91
2023-03-26T22:14:14.270Z,96209.94
2023-03-26T22:16:41.630Z,96207.34
2023-03-26T22:19:08.708Z,96214.94
2023-03-26T22:21:35.854Z,96213.81
2023-03-26T22:24:04.664Z,96217.66
2023-03-26T22:26:31.517Z,96224.97
2023-03-26T22:28:58.795Z,96219.94
2023-03-26T22:31:26.496Z,96213.69
2023-03-26T22:33:55.051Z,96219.69
2023-03-26T22:36:23.731Z,96215.38
2023-03-26T22:38:54.197Z,96218.22
2023-03-26T22:41:21.739Z,96214.25
2023-03-26T22:43:48.635Z,96205.34
2023-03-26T22:46:15.295Z,96213.09
2023-03-26T22:48:41.942Z,96212.81
2023-03-26T22:51:09.179Z,96205.94
2023-03-26T22:53:36.527Z,96196.47
2023-03-26T22:56:04.207Z,96194.78
2023-03-26T22:58:33.381Z,96183.31
2023-03-26T23:01:07.972Z,96185.91
2023-03-26T23:03:35.933Z,96186.03
2023-03-26T23:06:06.250Z,96182.72
2023-03-26T23:08:35.017Z,96181.16
2023-03-26T23:11:02.302Z,96185.91
2023-03-26T23:13:28.880Z,96194.06
2023-03-26T23:15:57.103Z,96188.63
2023-03-26T23:18:24.386Z,96184.88
2023-03-26T23:20:54.939Z,96194.19
2023-03-26T23:23:24.136Z,96195.34
2023-03-26T23:25:51.941Z,96195.50
2023-03-26T23:28:18.753Z,96196.31
2023-03-26T23:30:49.784Z,96198.31
2023-03-26T23:33:16.388Z,96194.03
2023-03-26T23:35:44.219Z,96187.00
2023-03-26T23:38:13.019Z,96185.00
2023-03-26T23:40:40.817Z,96189.59
2023-03-26T23:43:07.426Z,96187.72
2023-03-26T23:45:34.076Z,96185.00
2023-03-26T23:48:02.485Z,96192.28
2023-03-26T23:50:31.417Z,96191.56
2023-03-26T23:52:58.767Z,96192.28
2023-03-26T23:55:28.219Z,96196.28
2023-03-26T23:57:55.551Z,96184.72
